sensor_id;sensor_type;location;lat;lon;timestamp;P1;durP1;ratioP1;P2;durP2;ratioP2
74064;SDS011;62421;51.412;5.432;2023-07-29T00:00:41;7.00;;;3.03;;
74064;SDS011;62421;51.412;5.432;2023-07-29T00:03:07;13.00;;;3.47;;
74064;SDS011;62421;51.412;5.432;2023-07-29T00:05:33;7.53;;;3.05;;
74064;SDS011;62421;51.412;5.432;2023-07-29T00:07:58;6.23;;;2.70;;
74064;SDS011;62421;51.412;5.432;2023-07-29T00:10:23;9.90;;;3.30;;
74064;SDS011;62421;51.412;5.432;2023-07-29T00:12:49;11.87;;;3.23;;
74064;SDS011;62421;51.412;5.432;2023-07-29T00:15:14;6.87;;;2.73;;
74064;SDS011;62421;51.412;5.432;2023-07-29T00:17:40;9.63;;;3.17;;
74064;SDS011;62421;51.412;5.432;2023-07-29T00:20:05;8.17;;;3.33;;
74064;SDS011;62421;51.412;5.432;2023-07-29T00:22:32;5.88;;;3.30;;
74064;SDS011;62421;51.412;5.432;2023-07-29T00:24:57;7.35;;;3.55;;
74064;SDS011;62421;51.412;5.432;2023-07-29T00:27:24;5.93;;;2.57;;
74064;SDS011;62421;51.412;5.432;2023-07-29T00:29:50;7.18;;;3.83;;
74064;SDS011;62421;51.412;5.432;2023-07-29T00:32:15;8.20;;;3.40;;
74064;SDS011;62421;51.412;5.432;2023-07-29T00:34:40;7.00;;;3.50;;
74064;SDS011;62421;51.412;5.432;2023-07-29T00:37:06;8.87;;;2.93;;
74064;SDS011;62421;51.412;5.432;2023-07-29T00:39:31;9.20;;;4.05;;
74064;SDS011;62421;51.412;5.432;2023-07-29T00:41:57;8.00;;;3.80;;
74064;SDS011;62421;51.412;5.432;2023-07-29T00:44:23;8.77;;;3.67;;
74064;SDS011;62421;51.412;5.432;2023-07-29T00:46:50;8.27;;;3.80;;
74064;SDS011;62421;51.412;5.432;2023-07-29T00:49:16;9.15;;;3.97;;
74064;SDS011;62421;51.412;5.432;2023-07-29T00:51:42;9.15;;;3.97;;
74064;SDS011;62421;51.412;5.432;2023-07-29T00:54:08;7.77;;;3.90;;
74064;SDS011;62421;51.412;5.432;2023-07-29T00:56:33;6.80;;;3.80;;
74064;SDS011;62421;51.412;5.432;2023-07-29T00:59:00;7.28;;;3.95;;
74064;SDS011;62421;51.412;5.432;2023-07-29T01:01:27;9.45;;;3.63;;
74064;SDS011;62421;51.412;5.432;2023-07-29T01:03:53;8.93;;;3.73;;
74064;SDS011;62421;51.412;5.432;2023-07-29T01:09:03;6.83;;;3.57;;
74064;SDS011;62421;51.412;5.432;2023-07-29T01:16:58;6.78;;;4.25;;
74064;SDS011;62421;51.412;5.432;2023-07-29T01:22:34;10.73;;;3.97;;
74064;SDS011;62421;51.412;5.432;2023-07-29T01:25:01;7.25;;;3.67;;
74064;SDS011;62421;51.412;5.432;2023-07-29T01:27:27;6.38;;;3.75;;
74064;SDS011;62421;51.412;5.432;2023-07-29T01:29:53;6.70;;;3.10;;
74064;SDS011;62421;51.412;5.432;2023-07-29T01:32:24;12.35;;;3.70;;
74064;SDS011;62421;51.412;5.432;2023-07-29T01:34:56;8.35;;;3.28;;
74064;SDS011;62421;51.412;5.432;2023-07-29T01:37:29;7.53;;;3.60;;
74064;SDS011;62421;51.412;5.432;2023-07-29T01:39:58;7.33;;;3.13;;
74064;SDS011;62421;51.412;5.432;2023-07-29T01:42:25;6.28;;;3.10;;
74064;SDS011;62421;51.412;5.432;2023-07-29T01:44:51;6.15;;;3.25;;
74064;SDS011;62421;51.412;5.432;2023-07-29T01:47:17;10.30;;;3.35;;
74064;SDS011;62421;51.412;5.432;2023-07-29T01:49:42;6.97;;;3.70;;
74064;SDS011;62421;51.412;5.432;2023-07-29T01:52:08;9.38;;;3.78;;
74064;SDS011;62421;51.412;5.432;2023-07-29T01:54:34;7.10;;;3.90;;
74064;SDS011;62421;51.412;5.432;2023-07-29T01:56:59;9.60;;;3.97;;
74064;SDS011;62421;51.412;5.432;2023-07-29T01:59:24;7.37;;;3.90;;
74064;SDS011;62421;51.412;5.432;2023-07-29T02:01:50;7.40;;;3.63;;
74064;SDS011;62421;51.412;5.432;2023-07-29T02:04:15;6.27;;;3.77;;
74064;SDS011;62421;51.412;5.432;2023-07-29T02:06:40;7.37;;;4.03;;
74064;SDS011;62421;51.412;5.432;2023-07-29T02:09:06;7.77;;;3.80;;
74064;SDS011;62421;51.412;5.432;2023-07-29T02:11:31;9.67;;;4.77;;
74064;SDS011;62421;51.412;5.432;2023-07-29T02:13:56;10.88;;;4.07;;
74064;SDS011;62421;51.412;5.432;2023-07-29T02:16:22;7.43;;;4.60;;
74064;SDS011;62421;51.412;5.432;2023-07-29T02:18:48;8.90;;;5.25;;
74064;SDS011;62421;51.412;5.432;2023-07-29T02:21:15;8.10;;;4.50;;
74064;SDS011;62421;51.412;5.432;2023-07-29T02:23:40;8.97;;;4.53;;
74064;SDS011;62421;51.412;5.432;2023-07-29T02:26:06;10.02;;;4.80;;
74064;SDS011;62421;51.412;5.432;2023-07-29T02:28:31;13.13;;;4.63;;
74064;SDS011;62421;51.412;5.432;2023-07-29T02:31:09;7.73;;;4.33;;
74064;SDS011;62421;51.412;5.432;2023-07-29T02:33:39;8.85;;;4.55;;
74064;SDS011;62421;51.412;5.432;2023-07-29T02:36:04;11.10;;;4.53;;
74064;SDS011;62421;51.412;5.432;2023-07-29T02:38:30;8.43;;;4.70;;
74064;SDS011;62421;51.412;5.432;2023-07-29T02:40:55;11.65;;;4.80;;
74064;SDS011;62421;51.412;5.432;2023-07-29T02:43:20;8.57;;;4.23;;
74064;SDS011;62421;51.412;5.432;2023-07-29T02:45:46;9.33;;;4.50;;
74064;SDS011;62421;51.412;5.432;2023-07-29T02:48:11;9.57;;;4.87;;
74064;SDS011;62421;51.412;5.432;2023-07-29T02:50:36;6.13;;;3.70;;
74064;SDS011;62421;51.412;5.432;2023-07-29T02:53:02;6.47;;;3.20;;
74064;SDS011;62421;51.412;5.432;2023-07-29T02:55:28;11.55;;;4.72;;
74064;SDS011;62421;51.412;5.432;2023-07-29T02:57:53;8.90;;;3.87;;
74064;SDS011;62421;51.412;5.432;2023-07-29T03:00:18;7.70;;;3.83;;
74064;SDS011;62421;51.412;5.432;2023-07-29T03:02:44;8.20;;;4.20;;
74064;SDS011;62421;51.412;5.432;2023-07-29T03:05:09;7.40;;;3.87;;
74064;SDS011;62421;51.412;5.432;2023-07-29T03:07:35;6.87;;;3.60;;
74064;SDS011;62421;51.412;5.432;2023-07-29T03:10:00;7.27;;;2.73;;
74064;SDS011;62421;51.412;5.432;2023-07-29T03:12:25;6.55;;;3.80;;
74064;SDS011;62421;51.412;5.432;2023-07-29T03:14:51;8.37;;;3.70;;
74064;SDS011;62421;51.412;5.432;2023-07-29T03:17:17;7.63;;;3.10;;
74064;SDS011;62421;51.412;5.432;2023-07-29T03:19:42;7.85;;;3.00;;
74064;SDS011;62421;51.412;5.432;2023-07-29T03:22:07;7.57;;;3.50;;
74064;SDS011;62421;51.412;5.432;2023-07-29T03:24:32;10.53;;;3.90;;
74064;SDS011;62421;51.412;5.432;2023-07-29T03:26:58;7.90;;;3.27;;
74064;SDS011;62421;51.412;5.432;2023-07-29T03:29:23;5.83;;;3.30;;
74064;SDS011;62421;51.412;5.432;2023-07-29T03:31:49;6.60;;;3.10;;
74064;SDS011;62421;51.412;5.432;2023-07-29T03:34:14;6.80;;;3.30;;
74064;SDS011;62421;51.412;5.432;2023-07-29T03:36:39;8.73;;;3.87;;
74064;SDS011;62421;51.412;5.432;2023-07-29T03:39:05;10.23;;;3.58;;
74064;SDS011;62421;51.412;5.432;2023-07-29T03:41:31;9.27;;;3.57;;
74064;SDS011;62421;51.412;5.432;2023-07-29T03:43:56;7.83;;;2.93;;
74064;SDS011;62421;51.412;5.432;2023-07-29T03:46:21;6.40;;;3.37;;
74064;SDS011;62421;51.412;5.432;2023-07-29T03:48:47;7.80;;;3.40;;
74064;SDS011;62421;51.412;5.432;2023-07-29T03:51:13;7.43;;;4.33;;
74064;SDS011;62421;51.412;5.432;2023-07-29T03:53:38;8.02;;;3.10;;
74064;SDS011;62421;51.412;5.432;2023-07-29T03:56:04;10.38;;;3.05;;
74064;SDS011;62421;51.412;5.432;2023-07-29T03:58:29;7.93;;;3.13;;
74064;SDS011;62421;51.412;5.432;2023-07-29T04:00:54;6.37;;;3.10;;
74064;SDS011;62421;51.412;5.432;2023-07-29T04:03:20;4.93;;;2.97;;
74064;SDS011;62421;51.412;5.432;2023-07-29T04:05:45;5.73;;;3.20;;
74064;SDS011;62421;51.412;5.432;2023-07-29T04:08:10;8.60;;;3.47;;
74064;SDS011;62421;51.412;5.432;2023-07-29T04:10:36;8.90;;;2.97;;
74064;SDS011;62421;51.412;5.432;2023-07-29T04:13:02;6.97;;;2.67;;
74064;SDS011;62421;51.412;5.432;2023-07-29T04:15:28;7.22;;;3.10;;
74064;SDS011;62421;51.412;5.432;2023-07-29T04:17:54;8.30;;;2.87;;
74064;SDS011;62421;51.412;5.432;2023-07-29T04:20:20;6.43;;;2.63;;
74064;SDS011;62421;51.412;5.432;2023-07-29T04:22:45;7.63;;;2.40;;
74064;SDS011;62421;51.412;5.432;2023-07-29T04:25:10;6.17;;;2.57;;
74064;SDS011;62421;51.412;5.432;2023-07-29T04:27:37;5.10;;;2.47;;
74064;SDS011;62421;51.412;5.432;2023-07-29T04:30:02;6.77;;;2.93;;
74064;SDS011;62421;51.412;5.432;2023-07-29T04:32:27;6.60;;;2.90;;
74064;SDS011;62421;51.412;5.432;2023-07-29T04:34:53;4.30;;;2.37;;
74064;SDS011;62421;51.412;5.432;2023-07-29T04:37:18;5.47;;;2.40;;
74064;SDS011;62421;51.412;5.432;2023-07-29T04:39:44;6.22;;;2.35;;
74064;SDS011;62421;51.412;5.432;2023-07-29T04:42:09;6.50;;;2.23;;
74064;SDS011;62421;51.412;5.432;2023-07-29T04:44:34;6.13;;;3.20;;
74064;SDS011;62421;51.412;5.432;2023-07-29T04:47:00;7.77;;;2.60;;
74064;SDS011;62421;51.412;5.432;2023-07-29T04:49:25;6.17;;;3.03;;
74064;SDS011;62421;51.412;5.432;2023-07-29T04:51:51;4.40;;;2.07;;
74064;SDS011;62421;51.412;5.432;2023-07-29T04:54:16;6.45;;;2.90;;
74064;SDS011;62421;51.412;5.432;2023-07-29T04:56:41;5.20;;;2.30;;
74064;SDS011;62421;51.412;5.432;2023-07-29T04:59:07;5.40;;;2.47;;
74064;SDS011;62421;51.412;5.432;2023-07-29T05:01:33;6.45;;;2.72;;
74064;SDS011;62421;51.412;5.432;2023-07-29T05:03:58;4.93;;;2.20;;
74064;SDS011;62421;51.412;5.432;2023-07-29T05:06:24;6.37;;;2.60;;
74064;SDS011;62421;51.412;5.432;2023-07-29T05:08:49;4.83;;;2.03;;
74064;SDS011;62421;51.412;5.432;2023-07-29T05:11:14;5.97;;;2.27;;
74064;SDS011;62421;51.412;5.432;2023-07-29T05:13:40;7.43;;;2.30;;
74064;SDS011;62421;51.412;5.432;2023-07-29T05:16:05;4.90;;;2.20;;
74064;SDS011;62421;51.412;5.432;2023-07-29T05:18:31;5.28;;;2.00;;
74064;SDS011;62421;51.412;5.432;2023-07-29T05:20:56;4.07;;;1.95;;
74064;SDS011;62421;51.412;5.432;2023-07-29T05:23:21;5.53;;;1.80;;
74064;SDS011;62421;51.412;5.432;2023-07-29T05:25:47;5.23;;;2.27;;
74064;SDS011;62421;51.412;5.432;2023-07-29T05:28:12;3.93;;;1.63;;
74064;SDS011;62421;51.412;5.432;2023-07-29T05:30:37;6.73;;;2.30;;
74064;SDS011;62421;51.412;5.432;2023-07-29T05:33:05;4.47;;;2.03;;
74064;SDS011;62421;51.412;5.432;2023-07-29T05:35:32;5.13;;;2.05;;
74064;SDS011;62421;51.412;5.432;2023-07-29T05:37:58;6.03;;;2.60;;
74064;SDS011;62421;51.412;5.432;2023-07-29T05:40:23;7.53;;;2.30;;
74064;SDS011;62421;51.412;5.432;2023-07-29T05:42:49;4.18;;;1.75;;
74064;SDS011;62421;51.412;5.432;2023-07-29T05:45:14;6.90;;;2.30;;
74064;SDS011;62421;51.412;5.432;2023-07-29T05:47:39;5.80;;;2.43;;
74064;SDS011;62421;51.412;5.432;2023-07-29T05:50:05;5.47;;;2.33;;
74064;SDS011;62421;51.412;5.432;2023-07-29T05:52:31;5.28;;;2.72;;
74064;SDS011;62421;51.412;5.432;2023-07-29T05:54:57;4.23;;;2.07;;
74064;SDS011;62421;51.412;5.432;2023-07-29T05:57:22;4.72;;;2.17;;
74064;SDS011;62421;51.412;5.432;2023-07-29T05:59:47;5.30;;;2.70;;
74064;SDS011;62421;51.412;5.432;2023-07-29T06:02:13;5.40;;;2.30;;
74064;SDS011;62421;51.412;5.432;2023-07-29T06:04:38;4.97;;;2.53;;
74064;SDS011;62421;51.412;5.432;2023-07-29T06:07:04;6.17;;;2.40;;
74064;SDS011;62421;51.412;5.432;2023-07-29T06:09:30;5.75;;;2.03;;
74064;SDS011;62421;51.412;5.432;2023-07-29T06:11:55;4.80;;;2.37;;
74064;SDS011;62421;51.412;5.432;2023-07-29T06:14:20;4.53;;;2.10;;
74064;SDS011;62421;51.412;5.432;2023-07-29T06:16:46;7.73;;;1.83;;
74064;SDS011;62421;51.412;5.432;2023-07-29T06:19:11;5.23;;;2.10;;
74064;SDS011;62421;51.412;5.432;2023-07-29T06:21:38;4.95;;;1.90;;
74064;SDS011;62421;51.412;5.432;2023-07-29T06:24:03;3.70;;;1.73;;
74064;SDS011;62421;51.412;5.432;2023-07-29T06:26:29;4.53;;;1.65;;
74064;SDS011;62421;51.412;5.432;2023-07-29T06:28:54;5.30;;;2.10;;
74064;SDS011;62421;51.412;5.432;2023-07-29T06:31:19;3.53;;;1.50;;
74064;SDS011;62421;51.412;5.432;2023-07-29T06:33:45;5.13;;;2.07;;
74064;SDS011;62421;51.412;5.432;2023-07-29T06:36:11;5.53;;;2.00;;
74064;SDS011;62421;51.412;5.432;2023-07-29T06:38:37;4.83;;;1.80;;
74064;SDS011;62421;51.412;5.432;2023-07-29T06:41:03;5.63;;;1.70;;
74064;SDS011;62421;51.412;5.432;2023-07-29T06:43:29;10.95;;;1.73;;
74064;SDS011;62421;51.412;5.432;2023-07-29T06:45:54;3.47;;;1.43;;
74064;SDS011;62421;51.412;5.432;2023-07-29T06:48:20;5.95;;;1.88;;
74064;SDS011;62421;51.412;5.432;2023-07-29T06:50:45;9.23;;;2.00;;
74064;SDS011;62421;51.412;5.432;2023-07-29T06:53:11;7.90;;;2.10;;
74064;SDS011;62421;51.412;5.432;2023-07-29T06:55:36;6.87;;;2.10;;
74064;SDS011;62421;51.412;5.432;2023-07-29T06:58:02;4.63;;;1.52;;
74064;SDS011;62421;51.412;5.432;2023-07-29T07:00:27;4.50;;;1.60;;
74064;SDS011;62421;51.412;5.432;2023-07-29T07:02:53;10.90;;;1.87;;
74064;SDS011;62421;51.412;5.432;2023-07-29T07:05:18;6.83;;;1.40;;
74064;SDS011;62421;51.412;5.432;2023-07-29T07:07:44;3.35;;;1.42;;
74064;SDS011;62421;51.412;5.432;2023-07-29T07:10:09;5.70;;;1.40;;
74064;SDS011;62421;51.412;5.432;2023-07-29T07:12:35;7.30;;;1.50;;
74064;SDS011;62421;51.412;5.432;2023-07-29T07:15:00;3.63;;;1.57;;
74064;SDS011;62421;51.412;5.432;2023-07-29T07:17:26;7.15;;;1.65;;
74064;SDS011;62421;51.412;5.432;2023-07-29T07:19:51;5.27;;;1.53;;
74064;SDS011;62421;51.412;5.432;2023-07-29T07:22:16;5.63;;;1.50;;
74064;SDS011;62421;51.412;5.432;2023-07-29T07:24:42;3.13;;;1.57;;
74064;SDS011;62421;51.412;5.432;2023-07-29T07:27:07;4.83;;;1.63;;
74064;SDS011;62421;51.412;5.432;2023-07-29T07:29:33;6.68;;;1.33;;
74064;SDS011;62421;51.412;5.432;2023-07-29T07:31:58;3.80;;;1.50;;
74064;SDS011;62421;51.412;5.432;2023-07-29T07:34:24;2.80;;;1.60;;
74064;SDS011;62421;51.412;5.432;2023-07-29T07:36:50;3.05;;;1.38;;
74064;SDS011;62421;51.412;5.432;2023-07-29T07:39:15;3.60;;;1.50;;
74064;SDS011;62421;51.412;5.432;2023-07-29T07:41:41;2.97;;;1.20;;
74064;SDS011;62421;51.412;5.432;2023-07-29T07:44:07;4.72;;;1.40;;
74064;SDS011;62421;51.412;5.432;2023-07-29T07:46:33;5.27;;;1.47;;
74064;SDS011;62421;51.412;5.432;2023-07-29T07:48:58;9.30;;;1.50;;
74064;SDS011;62421;51.412;5.432;2023-07-29T07:51:24;6.43;;;1.87;;
74064;SDS011;62421;51.412;5.432;2023-07-29T07:53:50;3.30;;;1.10;;
74064;SDS011;62421;51.412;5.432;2023-07-29T07:56:15;3.97;;;1.63;;
74064;SDS011;62421;51.412;5.432;2023-07-29T07:58:41;14.33;;;1.83;;
74064;SDS011;62421;51.412;5.432;2023-07-29T08:01:07;7.93;;;1.70;;
74064;SDS011;62421;51.412;5.432;2023-07-29T08:03:34;4.18;;;1.50;;
74064;SDS011;62421;51.412;5.432;2023-07-29T08:06:00;5.22;;;1.80;;
74064;SDS011;62421;51.412;5.432;2023-07-29T08:08:26;18.20;;;1.50;;
74064;SDS011;62421;51.412;5.432;2023-07-29T08:10:53;13.03;;;1.60;;
74064;SDS011;62421;51.412;5.432;2023-07-29T08:13:25;4.40;;;1.17;;
74064;SDS011;62421;51.412;5.432;2023-07-29T08:16:00;2.70;;;1.45;;
74064;SDS011;62421;51.412;5.432;2023-07-29T08:18:25;3.25;;;1.20;;
74064;SDS011;62421;51.412;5.432;2023-07-29T08:21:00;3.57;;;1.30;;
74064;SDS011;62421;51.412;5.432;2023-07-29T08:23:38;3.15;;;1.40;;
74064;SDS011;62421;51.412;5.432;2023-07-29T08:26:04;6.88;;;1.70;;
74064;SDS011;62421;51.412;5.432;2023-07-29T08:28:31;2.97;;;1.10;;
74064;SDS011;62421;51.412;5.432;2023-07-29T08:31:01;2.55;;;1.20;;
74064;SDS011;62421;51.412;5.432;2023-07-29T08:33:27;3.55;;;1.00;;
74064;SDS011;62421;51.412;5.432;2023-07-29T08:35:53;3.77;;;1.10;;
74064;SDS011;62421;51.412;5.432;2023-07-29T08:38:19;2.85;;;1.40;;
74064;SDS011;62421;51.412;5.432;2023-07-29T08:40:45;3.38;;;1.33;;
74064;SDS011;62421;51.412;5.432;2023-07-29T08:43:14;2.80;;;1.30;;
74064;SDS011;62421;51.412;5.432;2023-07-29T08:45:41;5.53;;;1.50;;
74064;SDS011;62421;51.412;5.432;2023-07-29T08:48:10;4.18;;;1.10;;
74064;SDS011;62421;51.412;5.432;2023-07-29T08:50:36;3.65;;;1.23;;
74064;SDS011;62421;51.412;5.432;2023-07-29T08:53:05;3.92;;;0.90;;
74064;SDS011;62421;51.412;5.432;2023-07-29T08:55:31;3.17;;;1.15;;
74064;SDS011;62421;51.412;5.432;2023-07-29T08:57:58;3.67;;;1.50;;
74064;SDS011;62421;51.412;5.432;2023-07-29T09:00:25;3.70;;;1.20;;
74064;SDS011;62421;51.412;5.432;2023-07-29T09:02:51;4.57;;;1.45;;
74064;SDS011;62421;51.412;5.432;2023-07-29T09:05:16;3.70;;;1.40;;
74064;SDS011;62421;51.412;5.432;2023-07-29T09:07:42;4.43;;;1.20;;
74064;SDS011;62421;51.412;5.432;2023-07-29T09:10:08;4.30;;;0.93;;
74064;SDS011;62421;51.412;5.432;2023-07-29T09:12:38;3.08;;;1.17;;
74064;SDS011;62421;51.412;5.432;2023-07-29T09:15:04;3.20;;;0.90;;
74064;SDS011;62421;51.412;5.432;2023-07-29T09:17:31;6.32;;;1.45;;
74064;SDS011;62421;51.412;5.432;2023-07-29T09:19:57;4.43;;;1.33;;
74064;SDS011;62421;51.412;5.432;2023-07-29T09:22:23;3.42;;;1.38;;
74064;SDS011;62421;51.412;5.432;2023-07-29T09:24:50;4.90;;;1.10;;
74064;SDS011;62421;51.412;5.432;2023-07-29T09:27:28;2.53;;;1.17;;
74064;SDS011;62421;51.412;5.432;2023-07-29T09:29:56;3.40;;;1.27;;
74064;SDS011;62421;51.412;5.432;2023-07-29T09:32:23;3.90;;;1.20;;
74064;SDS011;62421;51.412;5.432;2023-07-29T09:34:50;2.73;;;0.93;;
74064;SDS011;62421;51.412;5.432;2023-07-29T09:37:25;2.78;;;1.27;;
74064;SDS011;62421;51.412;5.432;2023-07-29T09:39:51;3.60;;;1.25;;
74064;SDS011;62421;51.412;5.432;2023-07-29T09:42:18;2.85;;;1.33;;
74064;SDS011;62421;51.412;5.432;2023-07-29T09:44:45;4.60;;;1.00;;
74064;SDS011;62421;51.412;5.432;2023-07-29T09:47:18;2.93;;;0.90;;
74064;SDS011;62421;51.412;5.432;2023-07-29T09:49:47;5.63;;;1.38;;
74064;SDS011;62421;51.412;5.432;2023-07-29T09:52:14;4.37;;;1.10;;
74064;SDS011;62421;51.412;5.432;2023-07-29T09:54:43;7.72;;;1.30;;
74064;SDS011;62421;51.412;5.432;2023-07-29T09:57:19;4.25;;;1.30;;
74064;SDS011;62421;51.412;5.432;2023-07-29T09:59:54;3.25;;;1.20;;
74064;SDS011;62421;51.412;5.432;2023-07-29T10:02:20;2.25;;;1.13;;
74064;SDS011;62421;51.412;5.432;2023-07-29T10:04:46;2.47;;;0.93;;
74064;SDS011;62421;51.412;5.432;2023-07-29T10:07:12;2.35;;;1.08;;
74064;SDS011;62421;51.412;5.432;2023-07-29T10:09:38;4.13;;;1.17;;
74064;SDS011;62421;51.412;5.432;2023-07-29T10:12:05;4.60;;;1.20;;
74064;SDS011;62421;51.412;5.432;2023-07-29T10:14:31;4.13;;;1.23;;
74064;SDS011;62421;51.412;5.432;2023-07-29T10:16:57;3.17;;;1.20;;
74064;SDS011;62421;51.412;5.432;2023-07-29T10:19:24;3.13;;;1.35;;
74064;SDS011;62421;51.412;5.432;2023-07-29T10:21:50;2.47;;;1.13;;
74064;SDS011;62421;51.412;5.432;2023-07-29T10:24:18;2.20;;;1.07;;
74064;SDS011;62421;51.412;5.432;2023-07-29T10:26:47;3.53;;;1.60;;
74064;SDS011;62421;51.412;5.432;2023-07-29T10:29:15;3.30;;;1.30;;
74064;SDS011;62421;51.412;5.432;2023-07-29T10:31:46;4.15;;;1.33;;
74064;SDS011;62421;51.412;5.432;2023-07-29T10:34:12;2.20;;;1.35;;
74064;SDS011;62421;51.412;5.432;2023-07-29T10:36:39;3.30;;;1.40;;
74064;SDS011;62421;51.412;5.432;2023-07-29T10:39:06;5.45;;;1.80;;
74064;SDS011;62421;51.412;5.432;2023-07-29T10:41:54;4.63;;;1.50;;
74064;SDS011;62421;51.412;5.432;2023-07-29T10:47:19;5.88;;;1.50;;
74064;SDS011;62421;51.412;5.432;2023-07-29T10:49:58;3.13;;;1.43;;
74064;SDS011;62421;51.412;5.432;2023-07-29T10:55:02;4.55;;;1.52;;
74064;SDS011;62421;51.412;5.432;2023-07-29T10:57:32;3.63;;;1.48;;
74064;SDS011;62421;51.412;5.432;2023-07-29T11:00:05;2.97;;;1.30;;
74064;SDS011;62421;51.412;5.432;2023-07-29T11:02:35;2.83;;;1.50;;
74064;SDS011;62421;51.412;5.432;2023-07-29T11:05:15;3.10;;;1.60;;
74064;SDS011;62421;51.412;5.432;2023-07-29T11:07:43;2.17;;;1.38;;
74064;SDS011;62421;51.412;5.432;2023-07-29T11:10:15;2.63;;;1.17;;
74064;SDS011;62421;51.412;5.432;2023-07-29T11:17:54;3.97;;;1.70;;
74064;SDS011;62421;51.412;5.432;2023-07-29T11:20:24;5.53;;;1.70;;
74064;SDS011;62421;51.412;5.432;2023-07-29T11:22:52;5.10;;;1.73;;
74064;SDS011;62421;51.412;5.432;2023-07-29T11:25:18;3.65;;;1.58;;
74064;SDS011;62421;51.412;5.432;2023-07-29T11:27:45;11.63;;;2.50;;
74064;SDS011;62421;51.412;5.432;2023-07-29T11:30:12;11.75;;;2.90;;
74064;SDS011;62421;51.412;5.432;2023-07-29T11:32:40;10.35;;;2.42;;
74064;SDS011;62421;51.412;5.432;2023-07-29T11:35:07;6.65;;;2.20;;
74064;SDS011;62421;51.412;5.432;2023-07-29T11:37:35;6.00;;;2.45;;
74064;SDS011;62421;51.412;5.432;2023-07-29T11:40:01;5.80;;;2.00;;
74064;SDS011;62421;51.412;5.432;2023-07-29T11:42:27;4.25;;;2.30;;
74064;SDS011;62421;51.412;5.432;2023-07-29T11:44:53;4.18;;;2.25;;
74064;SDS011;62421;51.412;5.432;2023-07-29T11:47:21;4.28;;;2.10;;
74064;SDS011;62421;51.412;5.432;2023-07-29T11:49:47;3.37;;;1.83;;
74064;SDS011;62421;51.412;5.432;2023-07-29T11:52:12;4.80;;;2.07;;
74064;SDS011;62421;51.412;5.432;2023-07-29T11:54:38;3.80;;;2.10;;
74064;SDS011;62421;51.412;5.432;2023-07-29T11:57:07;3.53;;;1.63;;
74064;SDS011;62421;51.412;5.432;2023-07-29T11:59:37;7.45;;;2.38;;
74064;SDS011;62421;51.412;5.432;2023-07-29T12:02:07;5.95;;;2.20;;
74064;SDS011;62421;51.412;5.432;2023-07-29T12:04:35;7.87;;;2.57;;
74064;SDS011;62421;51.412;5.432;2023-07-29T12:07:02;6.75;;;2.20;;
74064;SDS011;62421;51.412;5.432;2023-07-29T12:09:28;4.88;;;2.45;;
74064;SDS011;62421;51.412;5.432;2023-07-29T12:11:53;5.05;;;2.10;;
74064;SDS011;62421;51.412;5.432;2023-07-29T12:14:19;7.28;;;2.92;;
74064;SDS011;62421;51.412;5.432;2023-07-29T12:16:47;4.57;;;2.67;;
74064;SDS011;62421;51.412;5.432;2023-07-29T12:19:14;5.40;;;2.97;;
74064;SDS011;62421;51.412;5.432;2023-07-29T12:21:43;8.35;;;2.45;;
74064;SDS011;62421;51.412;5.432;2023-07-29T12:24:09;4.88;;;2.65;;
74064;SDS011;62421;51.412;5.432;2023-07-29T12:26:37;8.10;;;2.90;;
74064;SDS011;62421;51.412;5.432;2023-07-29T12:29:16;6.97;;;2.72;;
74064;SDS011;62421;51.412;5.432;2023-07-29T12:31:47;6.10;;;3.10;;
74064;SDS011;62421;51.412;5.432;2023-07-29T12:34:20;8.32;;;2.80;;
74064;SDS011;62421;51.412;5.432;2023-07-29T12:36:49;8.68;;;2.00;;
74064;SDS011;62421;51.412;5.432;2023-07-29T12:39:16;8.13;;;1.63;;
74064;SDS011;62421;51.412;5.432;2023-07-29T12:41:45;7.65;;;1.55;;
74064;SDS011;62421;51.412;5.432;2023-07-29T12:44:12;8.83;;;1.50;;
74064;SDS011;62421;51.412;5.432;2023-07-29T12:46:37;3.95;;;1.40;;
74064;SDS011;62421;51.412;5.432;2023-07-29T12:49:03;3.07;;;1.30;;
74064;SDS011;62421;51.412;5.432;2023-07-29T12:51:28;4.93;;;1.70;;
74064;SDS011;62421;51.412;5.432;2023-07-29T12:53:54;4.40;;;1.73;;
74064;SDS011;62421;51.412;5.432;2023-07-29T12:56:19;6.80;;;1.20;;
74064;SDS011;62421;51.412;5.432;2023-07-29T12:58:45;4.37;;;1.10;;
74064;SDS011;62421;51.412;5.432;2023-07-29T13:01:10;4.17;;;1.50;;
74064;SDS011;62421;51.412;5.432;2023-07-29T13:03:41;3.35;;;1.35;;
74064;SDS011;62421;51.412;5.432;2023-07-29T13:06:07;3.53;;;1.03;;
74064;SDS011;62421;51.412;5.432;2023-07-29T13:08:32;4.63;;;1.50;;
74064;SDS011;62421;51.412;5.432;2023-07-29T13:10:57;4.20;;;1.48;;
74064;SDS011;62421;51.412;5.432;2023-07-29T13:13:23;7.22;;;1.65;;
74064;SDS011;62421;51.412;5.432;2023-07-29T13:15:48;3.60;;;1.60;;
74064;SDS011;62421;51.412;5.432;2023-07-29T13:18:13;5.13;;;1.90;;
74064;SDS011;62421;51.412;5.432;2023-07-29T13:20:39;3.40;;;1.70;;
74064;SDS011;62421;51.412;5.432;2023-07-29T13:23:04;4.10;;;1.83;;
74064;SDS011;62421;51.412;5.432;2023-07-29T13:25:29;5.67;;;1.93;;
74064;SDS011;62421;51.412;5.432;2023-07-29T13:27:55;3.17;;;1.50;;
74064;SDS011;62421;51.412;5.432;2023-07-29T13:30:20;4.90;;;1.80;;
74064;SDS011;62421;51.412;5.432;2023-07-29T13:32:46;9.47;;;1.97;;
74064;SDS011;62421;51.412;5.432;2023-07-29T13:35:12;6.03;;;2.10;;
74064;SDS011;62421;51.412;5.432;2023-07-29T13:37:37;5.93;;;2.27;;
74064;SDS011;62421;51.412;5.432;2023-07-29T13:40:03;4.45;;;2.13;;
74064;SDS011;62421;51.412;5.432;2023-07-29T13:42:28;4.63;;;1.98;;
74064;SDS011;62421;51.412;5.432;2023-07-29T13:44:54;4.83;;;2.27;;
74064;SDS011;62421;51.412;5.432;2023-07-29T13:47:19;4.30;;;2.10;;
74064;SDS011;62421;51.412;5.432;2023-07-29T13:49:44;5.03;;;2.27;;
74064;SDS011;62421;51.412;5.432;2023-07-29T13:52:10;4.40;;;2.23;;
74064;SDS011;62421;51.412;5.432;2023-07-29T13:54:35;5.95;;;2.30;;
74064;SDS011;62421;51.412;5.432;2023-07-29T13:57:00;4.47;;;1.90;;
74064;SDS011;62421;51.412;5.432;2023-07-29T13:59:26;5.03;;;2.17;;
74064;SDS011;62421;51.412;5.432;2023-07-29T14:01:51;4.67;;;2.30;;
74064;SDS011;62421;51.412;5.432;2023-07-29T14:04:16;4.67;;;2.10;;
74064;SDS011;62421;51.412;5.432;2023-07-29T14:06:42;4.60;;;2.13;;
74064;SDS011;62421;51.412;5.432;2023-07-29T14:09:07;4.17;;;2.10;;
74064;SDS011;62421;51.412;5.432;2023-07-29T14:11:32;4.23;;;2.40;;
74064;SDS011;62421;51.412;5.432;2023-07-29T14:13:58;8.48;;;1.90;;
74064;SDS011;62421;51.412;5.432;2023-07-29T14:16:23;4.10;;;1.90;;
74064;SDS011;62421;51.412;5.432;2023-07-29T14:18:48;5.33;;;1.53;;
74064;SDS011;62421;51.412;5.432;2023-07-29T14:21:14;3.93;;;1.67;;
74064;SDS011;62421;51.412;5.432;2023-07-29T14:23:39;3.67;;;2.10;;
74064;SDS011;62421;51.412;5.432;2023-07-29T14:26:04;4.87;;;1.80;;
74064;SDS011;62421;51.412;5.432;2023-07-29T14:28:30;4.17;;;2.03;;
74064;SDS011;62421;51.412;5.432;2023-07-29T14:30:55;4.07;;;1.83;;
74064;SDS011;62421;51.412;5.432;2023-07-29T14:33:21;4.53;;;1.53;;
74064;SDS011;62421;51.412;5.432;2023-07-29T14:35:46;6.17;;;1.70;;
74064;SDS011;62421;51.412;5.432;2023-07-29T14:38:11;5.47;;;2.27;;
74064;SDS011;62421;51.412;5.432;2023-07-29T14:40:37;3.60;;;1.80;;
74064;SDS011;62421;51.412;5.432;2023-07-29T14:43:02;3.10;;;1.70;;
74064;SDS011;62421;51.412;5.432;2023-07-29T14:45:27;3.73;;;2.03;;
74064;SDS011;62421;51.412;5.432;2023-07-29T14:47:53;10.70;;;2.07;;
74064;SDS011;62421;51.412;5.432;2023-07-29T14:50:18;5.05;;;1.75;;
74064;SDS011;62421;51.412;5.432;2023-07-29T14:52:44;3.55;;;1.95;;
74064;SDS011;62421;51.412;5.432;2023-07-29T14:55:09;3.00;;;1.50;;
74064;SDS011;62421;51.412;5.432;2023-07-29T14:57:34;3.50;;;1.80;;
74064;SDS011;62421;51.412;5.432;2023-07-29T15:00:00;3.73;;;1.80;;
74064;SDS011;62421;51.412;5.432;2023-07-29T15:02:25;3.40;;;1.80;;
74064;SDS011;62421;51.412;5.432;2023-07-29T15:04:50;4.40;;;1.70;;